North American — WBL7959 — position and weather

sailwx.info

Track history (hours):
 
Tides and Currents Weather Stations Pressure Air Temp Water Temp Dewpoint Dewpoint Depression Visibility Wind Speed Wind Dir Waves Ship Positions

North American

Owner: NORTH AMERICAN INC, SEATTLE, WA. More information available from US FCC via Universal Licensing System and Coast Guard Vessel Documentation Center.

Last reported at 2015-Jan-16 05:29 UTC. Time now 2015-Mar-07 01:45 UTC.
Position N 51°33' W 127°51'.
Warning: this ship's position is 49 days out of date.

Length 38 m; draft 2.5 m.

Type: Fishing. MMSI: 367307370.

Date/timePositionNaut miles runAvg speedWind from/ knotsBaromVisibWave heightAir tempDewpointWater temp
2015-Jan-16 05:29N 51°33' W 127°51'2210.8
2015-Jan-16 03:23N 51°10' W 127°51'910.7
2015-Jan-16 02:33N 51°02' W 127°47'1111.1
2015-Jan-16 01:34N 50°53' W 127°35'1110.7
2015-Jan-16 00:33N 50°46' W 127°23'1211.6
2015-Jan-15 23:33N 50°38' W 127°10'1212.2
2015-Jan-15 22:32N 50°34' W 126°52'1212.1
2015-Jan-15 21:31N 50°30' W 126°33'73 9.9
2015-Jan-15 14:05N 49°50' W 124°58'810.9
2015-Jan-15 13:20N 49°44' W 124°49'911.0
2015-Jan-15 12:33N 49°38' W 124°40'1111.0
2015-Jan-15 11:33N 49°30' W 124°28'1111.3
2015-Jan-15 10:33N 49°24' W 124°13'1111.1
2015-Jan-15 09:33N 49°18' W 123°59'1110.9
2015-Jan-15 08:33N 49°12' W 123°45'1010.5
2015-Jan-15 07:34N 49°06' W 123°32'1010.1
2015-Jan-15 06:33N 48°57' W 123°23'9 8.7
2015-Jan-15 05:33N 48°49' W 123°20'1110.9
2015-Jan-15 04:33N 48°39' W 123°15'9 9.3
2015-Jan-15 03:33N 48°30' W 123°09'10 9.9
2015-Jan-15 02:33N 48°23' W 122°60'1211.9
2015-Jan-15 01:34N 48°13' W 122°49'1112.4
2015-Jan-15 00:41N 48°05' W 122°38'213.3
2015-Jan-15 00:33N 48°04' W 122°37'312.9
2015-Jan-15 00:21N 48°01' W 122°36'911.9
2015-Jan-14 23:33N 47°54' W 122°28'111.3
2015-Jan-14 23:30N 47°53' W 122°28'1011.0
2015-Jan-14 22:34N 47°43' W 122°25'111.5
2015-Jan-14 22:30N 47°42' W 122°25'3 3.3
2015-Jan-14 21:33N 47°39' W 122°22'0 0.0
2015-Jan-14 21:29N 47°39' W 122°22'  
2015-Jan-09 22:10N 47°39' W 122°22'0 0.0
2015-Jan-09 22:10N 47°39' W 122°22'0 0.4
2015-Jan-09 21:33N 47°39' W 122°22'2 4.7
2015-Jan-09 21:13N 47°39' W 122°20'4 5.7
2015-Jan-09 20:34N 47°40' W 122°15'1 1.3
2015-Jan-09 20:01N 47°41' W 122°14'3 7.1
2015-Jan-09 19:33N 47°39' W 122°18'1 3.6
2015-Jan-09 19:12N 47°39' W 122°20'  
Track history (hours):
 
Tides and Currents Weather Stations Pressure Air Temp Water Temp Dewpoint Dewpoint Depression Visibility Wind Speed Wind Dir Waves Ship Positions

North American

Owner: NORTH AMERICAN INC, SEATTLE, WA. More information available from US FCC via Universal Licensing System and Coast Guard Vessel Documentation Center.

Last reported at 2015-Jan-16 05:29 UTC. Time now 2015-Mar-07 01:45 UTC.
Position N 51°33' W 127°51'.
Warning: this ship's position is 49 days out of date.

Length 38 m; draft 2.5 m.

Type: Fishing. MMSI: 367307370.

Date/timePositionNaut miles runAvg speedWind from/ knotsBaromVisibWave heightAir tempDewpointWater temp
2015-Jan-16 05:29N 51°33' W 127°51'2210.8
2015-Jan-16 03:23N 51°10' W 127°51'910.7
2015-Jan-16 02:33N 51°02' W 127°47'1111.1
2015-Jan-16 01:34N 50°53' W 127°35'1110.7
2015-Jan-16 00:33N 50°46' W 127°23'1211.6
2015-Jan-15 23:33N 50°38' W 127°10'1212.2
2015-Jan-15 22:32N 50°34' W 126°52'1212.1
2015-Jan-15 21:31N 50°30' W 126°33'73 9.9
2015-Jan-15 14:05N 49°50' W 124°58'810.9
2015-Jan-15 13:20N 49°44' W 124°49'911.0
2015-Jan-15 12:33N 49°38' W 124°40'1111.0
2015-Jan-15 11:33N 49°30' W 124°28'1111.3
2015-Jan-15 10:33N 49°24' W 124°13'1111.1
2015-Jan-15 09:33N 49°18' W 123°59'1110.9
2015-Jan-15 08:33N 49°12' W 123°45'1010.5
2015-Jan-15 07:34N 49°06' W 123°32'1010.1
2015-Jan-15 06:33N 48°57' W 123°23'9 8.7
2015-Jan-15 05:33N 48°49' W 123°20'1110.9
2015-Jan-15 04:33N 48°39' W 123°15'9 9.3
2015-Jan-15 03:33N 48°30' W 123°09'10 9.9
2015-Jan-15 02:33N 48°23' W 122°60'1211.9
2015-Jan-15 01:34N 48°13' W 122°49'1112.4
2015-Jan-15 00:41N 48°05' W 122°38'213.3
2015-Jan-15 00:33N 48°04' W 122°37'312.9
2015-Jan-15 00:21N 48°01' W 122°36'911.9
2015-Jan-14 23:33N 47°54' W 122°28'111.3
2015-Jan-14 23:30N 47°53' W 122°28'1011.0
2015-Jan-14 22:34N 47°43' W 122°25'111.5
2015-Jan-14 22:30N 47°42' W 122°25'3 3.3
2015-Jan-14 21:33N 47°39' W 122°22'0 0.0
2015-Jan-14 21:29N 47°39' W 122°22'  
2015-Jan-09 22:10N 47°39' W 122°22'0 0.0
2015-Jan-09 22:10N 47°39' W 122°22'0 0.4
2015-Jan-09 21:33N 47°39' W 122°22'2 4.7
2015-Jan-09 21:13N 47°39' W 122°20'4 5.7
2015-Jan-09 20:34N 47°40' W 122°15'1 1.3
2015-Jan-09 20:01N 47°41' W 122°14'3 7.1
2015-Jan-09 19:33N 47°39' W 122°18'1 3.6
2015-Jan-09 19:12N 47°39' W 122°20'  

Dump ship's entire track history